Архив погоды в Бугульме

Метеограмма Бугульма
Понедельник, 25 Июня
Время местн. Темп Ветер Видим Явления Облачность нижн/средн/верх Атм. давл. Влжн Точка росы ВНГО R Сост. почвы Tg s
Напр Скр Прв ур.ст ур.м изм
03:00 +16.3° З,Ю-З 1 - 20 км - переменная облачность 737 764 +0.5 84% +13.6° более 2.5 км - - - -
00:00 +17.3° Ю,Ю-В 1 - 10 км - облачно с прояснениями 737 763 +0.4 83% +14.4° более 2.5 км - - - -
Воскресенье, 24 Июня
Время местн. Темп Ветер Видим Явления Облачность нижн/средн/верх Атм. давл. Влжн Точка росы ВНГО R Сост. почвы Tg s
Напр Скр Прв ур.ст ур.м изм
21:00 +21.8° С,С-В 2 - 10 км - облачно 736 762 +0.8 68% +15.7° более 2.5 км - - - -
18:00 +26.7° С,С-В 3 - 20 км - переменная облачность 736 761 +0.1 52% +15.9° 1.5 км 0 - - -
15:00 +28.1° С 4 10 20 км - облачно 736 761 +0.2 43% +14.5° 1.5 км - - - -
12:00 +27.3° С 4 - 20 км - облачно 735 761 +0.4 44% +14° 1.5 км - - - -
09:00 +24.9° З,С-З 3 - 20 км - переменная облачность 735 761 +0.1 53% +14.6° более 2.5 км - - - -
06:00 +20° З,С-З 3 - 20 км - ясно 735 761 +0.5 63% +12.8° более 2.5 км 0 Сухая (без трещин) +13° -
03:00 +15.4° З,С-З 3 - 20 км - переменная облачность 735 761 +0.8 74% +10.8° более 2.5 км - - - -
00:00 +17.2° З,С-З 2 - 20 км - переменная облачность 734 760 +0.4 65% +10.5° более 2.5 км - - - -
Суббота, 23 Июня
Время местн. Темп Ветер Видим Явления Облачность нижн/средн/верх Атм. давл. Влжн Точка росы ВНГО R Сост. почвы Tg s
Напр Скр Прв ур.ст ур.м изм
21:00 +20.8° С-З 2 - 20 км - переменная облачность 733 760 +0.5 50% +10° более 2.5 км - - - -
18:00 +24.4° С-З 4 - 20 км - переменная облачность 733 759 -0.2 35% +8° более 2.5 км 0 - - -
15:00 +24.9° З,С-З 5 - 20 км - переменная облачность 733 759 -0.2 31% +6.6° - - - - -
12:00 +23.8° С-З 6 10 20 км - переменная облачность 733 759 -0.3 33% +6.6° - - - - -
09:00 +20.9° З,С-З 4 - 20 км - переменная облачность 734 760 +0.4 48% +9.4° более 2.5 км - - - -
06:00 +16° З 4 - 20 км - переменная облачность 733 760 +1.1 63% +9° более 2.5 км 0 Сухая (без трещин) - -
03:00 +12.7° З,С-З 2 - 20 км - облачно с прояснениями 732 759 +0.1 73% +7.9° - - - - -
00:00 +14.6° З,С-З 4 - 10 км - переменная облачность 732 759 +0.7 65% +8.2° более 2.5 км - - - -
Пятница, 22 Июня
Время местн. Темп Ветер Видим Явления Облачность нижн/средн/верх Атм. давл. Влжн Точка росы ВНГО R Сост. почвы Tg s
Напр Скр Прв ур.ст ур.м изм
21:00 +16.3° З,С-З 3 - 10 км - переменная облачность 731 758 +0.7 57% +7.8° 1.5 км - - - -
18:00 +21.4° С,С-З 5 12 20 км - переменная облачность 731 757 +0.6 41% +7.6° 1.5 км 0 - - -
15:00 +22.3° С-З 7 12 20 км - переменная облачность 730 756 +0.4 47% +10.5° 1.5 км - - - -
12:00 +20.2° З,С-З 6 12 20 км - переменная облачность 730 756 +0.7 57% +11.4° 1.5 км - - - -
09:00 +16.1° З,С-З 6 12 20 км - облачно с прояснениями 729 755 +1.4 68% +10.2° 1 км - - - -
06:00 +14.6° З,С-З 7 12 20 км - облачно с прояснениями 728 754 +0.9 62% +7.5° 1 км 0.8 Влажная (без луж) - -
03:00 +12.4° З 4 - 20 км небо без изменений {ливневые осадки} облачно 727 754 -0.4 74% +7.9° 2 км - - - -
00:00 +11.6° З 3 - 10 км ливневый дождь облачно 727 754 -0.3 81% +8.5° 1.5 км - - - -